Time,TemperatureF,DewpointF,PressureIn,WindDirection,WindDirectionDegrees,WindSpeedMPH,WindSpeedGustMPH,Humidity,HourlyPrecipIn,Conditions,Clouds,dailyrainin,SoftwareType,DateUTC
2013-02-14 00:01:00,29.0,15.0,30.01,WSW,253,1.0,5.0,55,0.00,,,0.00,,2013-02-14 08:01:00,
2013-02-14 00:11:00,29.0,15.0,30.01,WSW,253,1.0,5.0,55,0.00,,,0.00,,2013-02-14 08:11:00,
2013-02-14 00:21:00,28.0,14.0,30.01,West,272,3.0,5.0,55,0.00,,,0.00,,2013-02-14 08:21:00,
2013-02-14 00:32:00,27.0,14.0,30.01,West,277,2.0,3.0,58,0.00,,,0.00,,2013-02-14 08:32:00,
2013-02-14 00:43:00,27.0,14.0,30.01,West,277,2.0,3.0,58,0.00,,,0.00,,2013-02-14 08:43:00,
2013-02-14 00:52:00,26.0,14.0,30.01,WNW,283,2.0,3.0,59,0.00,,,0.00,,2013-02-14 08:52:00,
2013-02-14 01:02:00,26.0,14.0,30.01,NW,315,2.0,5.0,61,0.00,,,0.00,,2013-02-14 09:02:00,
2013-02-14 01:11:00,26.0,14.0,30.01,NW,315,2.0,5.0,61,0.00,,,0.00,,2013-02-14 09:11:00,
2013-02-14 01:21:00,26.0,14.0,30.01,WNW,301,2.0,3.0,61,0.00,,,0.00,,2013-02-14 09:21:00,
2013-02-14 01:31:00,25.0,13.0,30.00,WSW,250,1.0,2.0,59,0.00,,,0.00,,2013-02-14 09:31:00,
2013-02-14 01:42:00,25.0,13.0,30.00,WSW,250,1.0,2.0,59,0.00,,,0.00,,2013-02-14 09:42:00,
2013-02-14 01:51:00,25.0,13.0,30.00,WSW,250,3.0,5.0,60,0.00,,,0.00,,2013-02-14 09:51:00,
2013-02-14 02:02:00,25.0,13.0,30.00,West,270,2.0,5.0,61,0.00,,,0.00,,2013-02-14 10:02:00,
2013-02-14 02:11:00,25.0,14.0,30.00,WSW,251,5.0,5.0,62,0.00,,,0.00,,2013-02-14 10:11:00,
2013-02-14 02:21:00,25.0,14.0,30.00,WSW,251,5.0,5.0,62,0.00,,,0.00,,2013-02-14 10:21:00,
2013-02-14 02:31:00,25.0,14.0,30.00,WSW,251,5.0,5.0,62,0.00,,,0.00,,2013-02-14 10:31:00,
2013-02-14 02:42:00,25.0,14.0,30.00,WSW,251,5.0,5.0,62,0.00,,,0.00,,2013-02-14 10:42:00,
2013-02-14 02:52:00,25.0,13.0,30.00,West,270,3.0,5.0,61,0.00,,,0.00,,2013-02-14 10:52:00,
2013-02-14 03:01:00,25.0,13.0,30.00,West,270,3.0,5.0,61,0.00,,,0.00,,2013-02-14 11:01:00,
2013-02-14 03:11:00,25.0,13.0,30.00,West,270,3.0,5.0,61,0.00,,,0.00,,2013-02-14 11:11:00,
2013-02-14 03:21:00,23.0,12.0,29.99,West,270,1.0,2.0,61,0.00,,,0.00,,2013-02-14 11:21:00,
2013-02-14 03:32:00,23.0,12.0,29.99,WSW,248,3.0,3.0,63,0.00,,,0.00,,2013-02-14 11:32:00,
2013-02-14 03:42:00,23.0,12.0,29.99,WSW,248,3.0,3.0,63,0.00,,,0.00,,2013-02-14 11:42:00,
2013-02-14 03:52:00,23.0,13.0,29.99,WSW,248,0.0,2.0,64,0.00,,,0.00,,2013-02-14 11:52:00,
2013-02-14 04:02:00,23.0,13.0,29.99,SW,225,0.0,1.0,65,0.00,,,0.00,,2013-02-14 12:02:00,
2013-02-14 04:12:00,23.0,13.0,29.99,SW,225,0.0,1.0,65,0.00,,,0.00,,2013-02-14 12:12:00,
2013-02-14 04:22:00,23.0,13.0,30.00,SW,225,1.0,2.0,65,0.00,,,0.00,,2013-02-14 12:22:00,
2013-02-14 04:32:00,23.0,13.0,30.00,SW,225,1.0,2.0,66,0.00,,,0.00,,2013-02-14 12:32:00,
2013-02-14 04:42:00,23.0,13.0,30.00,SW,225,1.0,2.0,66,0.00,,,0.00,,2013-02-14 12:42:00,
2013-02-14 04:53:00,23.0,13.0,30.01,SW,225,1.0,2.0,66,0.00,,,0.00,,2013-02-14 12:53:00,
2013-02-14 05:01:00,23.0,13.0,30.01,WSW,248,2.0,2.0,66,0.00,,,0.00,,2013-02-14 13:01:00,
2013-02-14 05:11:00,23.0,13.0,30.01,WSW,248,2.0,2.0,66,0.00,,,0.00,,2013-02-14 13:11:00,
2013-02-14 05:21:00,23.0,13.0,30.00,WSW,248,2.0,3.0,66,0.00,,,0.00,,2013-02-14 13:21:00,
2013-02-14 05:31:00,23.0,13.0,30.00,WSW,248,2.0,3.0,66,0.00,,,0.00,,2013-02-14 13:31:00,
2013-02-14 05:41:00,23.0,13.0,30.00,WSW,248,2.0,3.0,66,0.00,,,0.00,,2013-02-14 13:41:00,
2013-02-14 05:51:00,23.0,14.0,30.01,West,270,5.0,6.0,68,0.00,,,0.00,,2013-02-14 13:51:00,
2013-02-14 06:01:00,25.0,16.0,30.01,West,270,3.0,5.0,68,0.00,,,0.00,,2013-02-14 14:01:00,
2013-02-14 06:11:00,25.0,16.0,30.01,West,270,3.0,5.0,68,0.00,,,0.00,,2013-02-14 14:11:00,
2013-02-14 06:21:00,25.0,16.0,30.02,WNW,290,5.0,6.0,68,0.00,,,0.00,,2013-02-14 14:21:00,
2013-02-14 06:31:00,26.0,17.0,30.02,WNW,287,6.0,7.0,68,0.00,,,0.00,,2013-02-14 14:31:00,
2013-02-14 06:41:00,26.0,17.0,30.02,WNW,287,6.0,7.0,68,0.00,,,0.00,,2013-02-14 14:41:00,
2013-02-14 06:52:00,28.0,18.0,30.02,WNW,297,7.0,8.0,66,0.00,,,0.00,,2013-02-14 14:52:00,
2013-02-14 07:01:00,28.0,18.0,30.02,WNW,297,7.0,8.0,66,0.00,,,0.00,,2013-02-14 15:01:00,
2013-02-14 07:11:00,28.0,18.0,30.02,WNW,297,7.0,8.0,66,0.00,,,0.00,,2013-02-14 15:11:00,
2013-02-14 07:21:00,30.0,19.0,30.03,WNW,292,6.0,8.0,62,0.00,,,0.00,,2013-02-14 15:21:00,
2013-02-14 07:32:00,32.0,19.0,30.04,NW,309,6.0,9.0,58,0.00,,,0.00,,2013-02-14 15:32:00,
2013-02-14 07:41:00,32.0,19.0,30.04,NW,309,6.0,9.0,58,0.00,,,0.00,,2013-02-14 15:41:00,
2013-02-14 07:52:00,34.0,19.0,30.04,NW,310,6.0,10.0,54,0.00,,,0.00,,2013-02-14 15:52:00,
2013-02-14 08:01:00,35.0,19.0,30.04,NW,314,5.0,9.0,52,0.00,,,0.00,,2013-02-14 16:01:00,
2013-02-14 08:11:00,35.0,19.0,30.04,NW,314,5.0,9.0,52,0.00,,,0.00,,2013-02-14 16:11:00,
2013-02-14 08:21:00,37.0,19.0,30.04,NW,311,7.0,12.0,48,0.00,,,0.00,,2013-02-14 16:21:00,
2013-02-14 08:32:00,37.0,19.0,30.04,NW,311,7.0,12.0,48,0.00,,,0.00,,2013-02-14 16:32:00,
2013-02-14 08:41:00,37.0,19.0,30.04,NW,311,7.0,12.0,48,0.00,,,0.00,,2013-02-14 16:41:00,
2013-02-14 08:52:00,39.0,20.0,30.03,NW,317,7.0,10.0,46,0.00,,,0.00,,2013-02-14 16:52:00,
2013-02-14 09:01:00,39.0,19.0,30.03,NW,315,8.0,12.0,45,0.00,,,0.00,,2013-02-14 17:01:00,
2013-02-14 09:11:00,39.0,19.0,30.03,NW,315,8.0,12.0,45,0.00,,,0.00,,2013-02-14 17:11:00,
2013-02-14 09:21:00,40.0,20.0,30.03,NW,309,11.0,15.0,45,0.00,,,0.00,,2013-02-14 17:21:00,
2013-02-14 09:31:00,41.0,21.0,30.03,WNW,303,11.0,16.0,44,0.00,,,0.00,,2013-02-14 17:31:00,
2013-02-14 09:42:00,41.0,21.0,30.03,WNW,303,11.0,16.0,44,0.00,,,0.00,,2013-02-14 17:42:00,
2013-02-14 09:52:00,42.0,21.0,30.04,NW,309,10.0,17.0,43,0.00,,,0.00,,2013-02-14 17:52:00,
2013-02-14 10:01:00,43.0,22.0,30.04,NW,315,7.0,10.0,42,0.00,,,0.00,,2013-02-14 18:01:00,
2013-02-14 10:11:00,43.0,22.0,30.04,NW,315,7.0,10.0,42,0.00,,,0.00,,2013-02-14 18:11:00,
2013-02-14 10:23:00,43.0,20.0,30.03,WNW,293,16.0,18.0,39,0.00,,,0.00,,2013-02-14 18:23:00,
2013-02-14 10:32:00,43.0,20.0,30.03,NNW,341,11.0,21.0,39,0.00,,,0.00,,2013-02-14 18:32:00,
2013-02-14 10:42:00,43.0,20.0,30.03,NNW,341,11.0,21.0,39,0.00,,,0.00,,2013-02-14 18:42:00,
2013-02-14 10:52:00,45.0,20.0,30.01,NW,310,10.0,14.0,37,0.00,,,0.00,,2013-02-14 18:52:00,
2013-02-14 11:02:00,45.0,20.0,30.01,NW,316,13.0,16.0,37,0.00,,,0.00,,2013-02-14 19:02:00,
2013-02-14 11:11:00,45.0,20.0,30.01,NW,316,13.0,16.0,37,0.00,,,0.00,,2013-02-14 19:11:00,
2013-02-14 11:21:00,47.0,21.0,29.99,WNW,296,13.0,15.0,35,0.00,,,0.00,,2013-02-14 19:21:00,
2013-02-14 11:31:00,47.0,21.0,29.99,WNW,296,13.0,15.0,35,0.00,,,0.00,,2013-02-14 19:31:00,
2013-02-14 11:41:00,47.0,21.0,29.99,WNW,296,13.0,15.0,35,0.00,,,0.00,,2013-02-14 19:41:00,
2013-02-14 11:52:00,48.0,21.0,29.98,NW,315,12.0,18.0,34,0.00,,,0.00,,2013-02-14 19:52:00,
2013-02-14 12:01:00,49.0,21.0,29.98,NW,308,9.0,17.0,33,0.00,,,0.00,,2013-02-14 20:01:00,
2013-02-14 12:11:00,49.0,21.0,29.98,NW,308,9.0,17.0,33,0.00,,,0.00,,2013-02-14 20:11:00,
2013-02-14 12:21:00,50.0,21.0,29.97,WNW,288,6.0,14.0,31,0.00,,,0.00,,2013-02-14 20:21:00,
2013-02-14 12:31:00,50.0,19.0,29.96,WNW,292,12.0,20.0,29,0.00,,,0.00,,2013-02-14 20:31:00,
2013-02-14 12:41:00,50.0,19.0,29.96,WNW,292,12.0,20.0,29,0.00,,,0.00,,2013-02-14 20:41:00,
2013-02-14 12:52:00,51.0,20.0,29.96,WNW,296,11.0,17.0,29,0.00,,,0.00,,2013-02-14 20:52:00,
2013-02-14 13:02:00,51.0,19.0,29.96,NW,304,12.0,17.0,28,0.00,,,0.00,,2013-02-14 21:02:00,
2013-02-14 13:11:00,51.0,19.0,29.96,NW,304,12.0,17.0,28,0.00,,,0.00,,2013-02-14 21:11:00,
2013-02-14 13:21:00,51.0,19.0,29.96,NNW,327,11.0,16.0,28,0.00,,,0.00,,2013-02-14 21:21:00,
2013-02-14 13:31:00,51.0,19.0,29.96,WNW,301,10.0,14.0,28,0.00,,,0.00,,2013-02-14 21:31:00,
2013-02-14 13:42:00,51.0,19.0,29.96,WNW,301,10.0,14.0,28,0.00,,,0.00,,2013-02-14 21:42:00,
2013-02-14 13:52:00,51.0,19.0,29.96,WNW,301,10.0,14.0,28,0.00,,,0.00,,2013-02-14 21:52:00,
2013-02-14 14:02:00,50.0,19.0,29.97,NW,318,12.0,21.0,29,0.00,,,0.00,,2013-02-14 22:02:00,
2013-02-14 14:11:00,50.0,19.0,29.97,NW,318,12.0,21.0,29,0.00,,,0.00,,2013-02-14 22:11:00,
2013-02-14 14:21:00,50.0,19.0,29.98,NW,305,13.0,21.0,29,0.00,,,0.00,,2013-02-14 22:21:00,
2013-02-14 14:31:00,50.0,19.0,29.97,NW,310,12.0,18.0,29,0.00,,,0.00,,2013-02-14 22:31:00,
2013-02-14 14:42:00,50.0,19.0,29.97,NW,310,12.0,18.0,29,0.00,,,0.00,,2013-02-14 22:42:00,
2013-02-14 14:52:00,49.0,18.0,29.98,NNW,335,16.0,23.0,29,0.00,,,0.00,,2013-02-14 22:52:00,
2013-02-14 15:01:00,49.0,18.0,29.98,NNW,335,16.0,23.0,29,0.00,,,0.00,,2013-02-14 23:01:00,
2013-02-14 15:11:00,49.0,18.0,29.98,NNW,335,16.0,23.0,29,0.00,,,0.00,,2013-02-14 23:11:00,
2013-02-14 15:21:00,49.0,19.0,29.98,NW,309,10.0,21.0,30,0.00,,,0.00,,2013-02-14 23:21:00,
2013-02-14 15:31:00,49.0,20.0,29.98,NNW,342,13.0,21.0,31,0.00,,,0.00,,2013-02-14 23:31:00,
2013-02-14 15:42:00,49.0,20.0,29.98,NNW,342,13.0,21.0,31,0.00,,,0.00,,2013-02-14 23:42:00,
2013-02-14 15:52:00,48.0,20.0,29.99,NW,317,11.0,16.0,32,0.00,,,0.00,,2013-02-14 23:52:00,
2013-02-14 16:01:00,48.0,20.0,29.99,NW,307,9.0,15.0,32,0.00,,,0.00,,2013-02-15 00:01:00,
2013-02-14 16:11:00,48.0,20.0,29.99,NW,307,9.0,15.0,32,0.00,,,0.00,,2013-02-15 00:11:00,
2013-02-14 16:22:00,46.0,19.0,29.99,NNW,327,13.0,16.0,34,0.00,,,0.00,,2013-02-15 00:22:00,
2013-02-14 16:31:00,46.0,19.0,29.99,NNW,327,13.0,16.0,34,0.00,,,0.00,,2013-02-15 00:31:00,
2013-02-14 16:42:00,46.0,19.0,29.99,NNW,327,13.0,16.0,34,0.00,,,0.00,,2013-02-15 00:42:00,
2013-02-14 16:52:00,45.0,19.0,29.98,NW,315,10.0,20.0,35,0.00,,,0.00,,2013-02-15 00:52:00,
2013-02-14 17:02:00,44.0,19.0,29.99,NW,317,7.0,15.0,36,0.00,,,0.00,,2013-02-15 01:02:00,
2013-02-14 17:11:00,44.0,19.0,29.99,NW,317,7.0,15.0,36,0.00,,,0.00,,2013-02-15 01:11:00,
2013-02-14 17:21:00,43.0,19.0,29.99,NW,317,7.0,13.0,38,0.00,,,0.00,,2013-02-15 01:21:00,
2013-02-14 17:31:00,42.0,19.0,29.99,NW,320,12.0,13.0,39,0.00,,,0.00,,2013-02-15 01:31:00,
2013-02-14 17:41:00,42.0,19.0,29.99,NW,320,12.0,13.0,39,0.00,,,0.00,,2013-02-15 01:41:00,
2013-02-14 17:52:00,41.0,19.0,29.99,NW,321,8.0,13.0,40,0.00,,,0.00,,2013-02-15 01:52:00,
2013-02-14 18:01:00,41.0,19.0,30.00,NW,319,8.0,12.0,41,0.00,,,0.00,,2013-02-15 02:01:00,
2013-02-14 18:11:00,41.0,19.0,30.00,NW,319,8.0,12.0,41,0.00,,,0.00,,2013-02-15 02:11:00,
2013-02-14 18:21:00,40.0,19.0,30.01,NW,325,9.0,12.0,43,0.00,,,0.00,,2013-02-15 02:21:00,
2013-02-14 18:31:00,40.0,20.0,30.01,NW,312,9.0,16.0,44,0.00,,,0.00,,2013-02-15 02:31:00,
2013-02-14 18:41:00,40.0,20.0,30.01,NW,312,9.0,16.0,44,0.00,,,0.00,,2013-02-15 02:41:00,
2013-02-14 18:52:00,40.0,20.0,30.01,NW,315,9.0,14.0,44,0.00,,,0.00,,2013-02-15 02:52:00,
2013-02-14 19:02:00,40.0,20.0,30.01,NW,315,9.0,14.0,44,0.00,,,0.00,,2013-02-15 03:02:00,